sensor_id;sensor_type;location;lat;lon;timestamp;temperature;humidity
38263;DHT22;24054;50.128;19.730;2024-03-06T15:36:47;19.20;48.90
38263;DHT22;24054;50.128;19.730;2024-03-06T15:39:14;19.10;49.40
38263;DHT22;24054;50.128;19.730;2024-03-06T15:41:41;19.20;77.00
38263;DHT22;24054;50.128;19.730;2024-03-06T15:44:08;19.10;50.10
38263;DHT22;24054;50.128;19.730;2024-03-06T15:46:36;19.20;50.10
38263;DHT22;24054;50.128;19.730;2024-03-06T15:49:07;19.30;76.20
38263;DHT22;24054;50.128;19.730;2024-03-06T15:51:47;19.20;50.50
38263;DHT22;24054;50.128;19.730;2024-03-06T15:54:15;19.30;50.70
38263;DHT22;24054;50.128;19.730;2024-03-06T15:56:42;19.30;50.50
38263;DHT22;24054;50.128;19.730;2024-03-06T16:04:04;19.50;59.70
38263;DHT22;24054;50.128;19.730;2024-03-06T16:06:31;19.50;72.90
38263;DHT22;24054;50.128;19.730;2024-03-06T16:09:01;19.60;52.00
38263;DHT22;24054;50.128;19.730;2024-03-06T16:11:30;19.60;52.10
38263;DHT22;24054;50.128;19.730;2024-03-06T16:13:57;19.60;52.20
38263;DHT22;24054;50.128;19.730;2024-03-06T16:16:26;19.60;52.50
38263;DHT22;24054;50.128;19.730;2024-03-06T16:18:53;19.70;52.40
38263;DHT22;24054;50.128;19.730;2024-03-06T16:21:21;19.70;52.10
38263;DHT22;24054;50.128;19.730;2024-03-06T16:23:48;19.60;71.10
38263;DHT22;24054;50.128;19.730;2024-03-06T16:26:19;19.70;71.40
38263;DHT22;24054;50.128;19.730;2024-03-06T16:28:46;19.80;51.80
38263;DHT22;24054;50.128;19.730;2024-03-06T16:31:14;19.70;51.70
38263;DHT22;24054;50.128;19.730;2024-03-06T16:33:44;19.70;51.60
38263;DHT22;24054;50.128;19.730;2024-03-06T16:36:11;19.80;51.60
38263;DHT22;24054;50.128;19.730;2024-03-06T16:38:38;20.00;71.20
38263;DHT22;24054;50.128;19.730;2024-03-06T16:41:06;19.80;71.60
38263;DHT22;24054;50.128;19.730;2024-03-06T16:43:36;19.90;51.30
38263;DHT22;24054;50.128;19.730;2024-03-06T16:46:03;20.00;71.90
38263;DHT22;24054;50.128;19.730;2024-03-06T16:48:31;19.90;51.80
38263;DHT22;24054;50.128;19.730;2024-03-06T16:51:00;19.90;51.90
38263;DHT22;24054;50.128;19.730;2024-03-06T16:53:28;20.00;51.90
38263;DHT22;24054;50.128;19.730;2024-03-06T16:55:57;20.00;52.00
38263;DHT22;24054;50.128;19.730;2024-03-06T16:58:24;19.90;52.00
38263;DHT22;24054;50.128;19.730;2024-03-06T17:00:53;20.00;71.60
38263;DHT22;24054;50.128;19.730;2024-03-06T17:05:48;20.00;51.70
38263;DHT22;24054;50.128;19.730;2024-03-06T17:08:15;20.00;72.40
38263;DHT22;24054;50.128;19.730;2024-03-06T17:10:42;20.00;73.80
38263;DHT22;24054;50.128;19.730;2024-03-06T17:13:09;19.90;77.00
38263;DHT22;24054;50.128;19.730;2024-03-06T17:15:37;19.80;57.60
38263;DHT22;24054;50.128;19.730;2024-03-06T17:18:06;19.90;75.90
38263;DHT22;24054;50.128;19.730;2024-03-06T17:20:34;19.80;58.10
38263;DHT22;24054;50.128;19.730;2024-03-06T17:23:01;19.80;74.80
38263;DHT22;24054;50.128;19.730;2024-03-06T17:25:29;19.90;57.80
38263;DHT22;24054;50.128;19.730;2024-03-06T17:27:56;19.90;57.70
38263;DHT22;24054;50.128;19.730;2024-03-06T17:30:23;20.20;75.20
38263;DHT22;24054;50.128;19.730;2024-03-06T17:32:52;20.00;57.40
38263;DHT22;24054;50.128;19.730;2024-03-06T17:35:22;20.00;74.40
38263;DHT22;24054;50.128;19.730;2024-03-06T17:37:49;20.10;57.30
38263;DHT22;24054;50.128;19.730;2024-03-06T17:40:17;20.10;57.30
38263;DHT22;24054;50.128;19.730;2024-03-06T17:42:44;20.10;74.60
38263;DHT22;24054;50.128;19.730;2024-03-06T17:45:11;20.10;74.00
38263;DHT22;24054;50.128;19.730;2024-03-06T17:47:39;20.20;56.30
38263;DHT22;24054;50.128;19.730;2024-03-06T17:50:07;20.20;56.40
38263;DHT22;24054;50.128;19.730;2024-03-06T17:52:38;20.20;74.00
38263;DHT22;24054;50.128;19.730;2024-03-06T17:55:05;20.30;73.70
38263;DHT22;24054;50.128;19.730;2024-03-06T17:57:32;20.30;73.20
38263;DHT22;24054;50.128;19.730;2024-03-06T17:59:59;20.20;56.00
38263;DHT22;24054;50.128;19.730;2024-03-06T18:02:28;20.60;73.80
38263;DHT22;24054;50.128;19.730;2024-03-06T18:04:56;20.30;59.80
38263;DHT22;24054;50.128;19.730;2024-03-06T18:09:52;20.10;72.30
38263;DHT22;24054;50.128;19.730;2024-03-06T18:12:20;20.40;55.40
38263;DHT22;24054;50.128;19.730;2024-03-06T18:14:47;20.40;55.20
38263;DHT22;24054;50.128;19.730;2024-03-06T18:17:14;20.50;72.50
38263;DHT22;24054;50.128;19.730;2024-03-06T18:19:41;20.50;55.10
38263;DHT22;24054;50.128;19.730;2024-03-06T18:22:08;20.20;72.40
38263;DHT22;24054;50.128;19.730;2024-03-06T18:24:35;20.50;72.50
38263;DHT22;24054;50.128;19.730;2024-03-06T18:27:04;20.50;54.70
38263;DHT22;24054;50.128;19.730;2024-03-06T18:29:31;20.50;54.70
38263;DHT22;24054;50.128;19.730;2024-03-06T18:31:58;20.50;54.40
38263;DHT22;24054;50.128;19.730;2024-03-06T18:34:25;20.50;54.50
38263;DHT22;24054;50.128;19.730;2024-03-06T18:36:52;20.50;54.30
38263;DHT22;24054;50.128;19.730;2024-03-06T18:39:18;20.50;70.80
38263;DHT22;24054;50.128;19.730;2024-03-06T18:41:45;20.50;54.20
38263;DHT22;24054;50.128;19.730;2024-03-06T18:44:13;20.50;54.10
38263;DHT22;24054;50.128;19.730;2024-03-06T18:46:40;20.50;54.00
38263;DHT22;24054;50.128;19.730;2024-03-06T18:49:07;20.60;54.10
38263;DHT22;24054;50.128;19.730;2024-03-06T18:51:36;20.60;71.30
38263;DHT22;24054;50.128;19.730;2024-03-06T18:54:03;20.60;54.00
38263;DHT22;24054;50.128;19.730;2024-03-06T18:56:30;20.60;53.90
38263;DHT22;24054;50.128;19.730;2024-03-06T18:58:57;20.60;69.50
38263;DHT22;24054;50.128;19.730;2024-03-06T19:01:26;20.60;69.80
38263;DHT22;24054;50.128;19.730;2024-03-06T19:03:53;20.60;69.50
38263;DHT22;24054;50.128;19.730;2024-03-06T19:06:19;20.70;69.70
38263;DHT22;24054;50.128;19.730;2024-03-06T19:08:46;20.60;69.20
38263;DHT22;24054;50.128;19.730;2024-03-06T19:11:15;20.60;53.80
38263;DHT22;24054;50.128;19.730;2024-03-06T19:13:42;20.60;68.80
38263;DHT22;24054;50.128;19.730;2024-03-06T19:16:08;20.60;53.70
38263;DHT22;24054;50.128;19.730;2024-03-06T19:18:37;20.70;54.50
38263;DHT22;24054;50.128;19.730;2024-03-06T19:21:04;20.70;67.70
38263;DHT22;24054;50.128;19.730;2024-03-06T19:23:32;20.70;69.00
38263;DHT22;24054;50.128;19.730;2024-03-06T19:25:58;20.70;53.80
38263;DHT22;24054;50.128;19.730;2024-03-06T19:28:25;20.70;53.80
38263;DHT22;24054;50.128;19.730;2024-03-06T19:30:52;20.70;53.80
38263;DHT22;24054;50.128;19.730;2024-03-06T19:33:25;20.70;68.70
38263;DHT22;24054;50.128;19.730;2024-03-06T19:35:53;20.80;68.10
38263;DHT22;24054;50.128;19.730;2024-03-06T19:38:20;23.50;71.80
38263;DHT22;24054;50.128;19.730;2024-03-06T19:40:47;20.80;68.80
38263;DHT22;24054;50.128;19.730;2024-03-06T19:43:14;20.90;69.80
38263;DHT22;24054;50.128;19.730;2024-03-06T19:45:41;20.80;69.90
38263;DHT22;24054;50.128;19.730;2024-03-06T19:48:08;20.80;53.90
38263;DHT22;24054;50.128;19.730;2024-03-06T19:50:35;20.70;67.80
38263;DHT22;24054;50.128;19.730;2024-03-06T19:53:04;20.90;54.00
38263;DHT22;24054;50.128;19.730;2024-03-06T19:55:31;21.00;70.30
38263;DHT22;24054;50.128;19.730;2024-03-06T19:57:57;20.70;69.40
38263;DHT22;24054;50.128;19.730;2024-03-06T20:00:24;20.90;54.10
38263;DHT22;24054;50.128;19.730;2024-03-06T20:02:51;20.90;54.10
38263;DHT22;24054;50.128;19.730;2024-03-06T20:05:18;20.90;69.20
38263;DHT22;24054;50.128;19.730;2024-03-06T20:07:45;20.80;68.40
38263;DHT22;24054;50.128;19.730;2024-03-06T20:10:13;20.90;69.20
38263;DHT22;24054;50.128;19.730;2024-03-06T20:12:40;20.90;69.00
38263;DHT22;24054;50.128;19.730;2024-03-06T20:15:08;20.80;70.50
38263;DHT22;24054;50.128;19.730;2024-03-06T20:17:36;21.00;69.90
38263;DHT22;24054;50.128;19.730;2024-03-06T20:20:03;21.00;68.40
38263;DHT22;24054;50.128;19.730;2024-03-06T20:22:30;20.90;69.50
38263;DHT22;24054;50.128;19.730;2024-03-06T20:24:57;21.00;68.50
38263;DHT22;24054;50.128;19.730;2024-03-06T20:27:25;21.00;54.30
38263;DHT22;24054;50.128;19.730;2024-03-06T20:29:52;21.00;68.60
38263;DHT22;24054;50.128;19.730;2024-03-06T20:32:19;21.10;69.10
38263;DHT22;24054;50.128;19.730;2024-03-06T20:34:45;21.00;54.30
38263;DHT22;24054;50.128;19.730;2024-03-06T20:37:12;21.10;69.60
38263;DHT22;24054;50.128;19.730;2024-03-06T20:39:39;21.10;54.50
38263;DHT22;24054;50.128;19.730;2024-03-06T20:42:06;21.00;68.90
38263;DHT22;24054;50.128;19.730;2024-03-06T20:44:34;21.10;54.60
38263;DHT22;24054;50.128;19.730;2024-03-06T20:47:01;21.70;70.40
38263;DHT22;24054;50.128;19.730;2024-03-06T20:49:30;21.10;54.20
38263;DHT22;24054;50.128;19.730;2024-03-06T20:51:57;21.10;54.70
38263;DHT22;24054;50.128;19.730;2024-03-06T20:54:24;21.10;54.70
38263;DHT22;24054;50.128;19.730;2024-03-06T20:56:52;21.10;69.70
38263;DHT22;24054;50.128;19.730;2024-03-06T20:59:19;21.10;54.80
38263;DHT22;24054;50.128;19.730;2024-03-06T21:01:47;21.10;54.90
38263;DHT22;24054;50.128;19.730;2024-03-06T21:04:14;21.20;70.20
38263;DHT22;24054;50.128;19.730;2024-03-06T21:06:41;21.10;54.90
38263;DHT22;24054;50.128;19.730;2024-03-06T21:09:08;21.00;69.90
38263;DHT22;24054;50.128;19.730;2024-03-06T21:11:36;21.50;69.00
38263;DHT22;24054;50.128;19.730;2024-03-06T21:14:03;21.30;68.90
38263;DHT22;24054;50.128;19.730;2024-03-06T21:16:31;21.20;55.10
38263;DHT22;24054;50.128;19.730;2024-03-06T21:18:59;21.20;55.00
38263;DHT22;24054;50.128;19.730;2024-03-06T21:21:26;21.20;55.10
38263;DHT22;24054;50.128;19.730;2024-03-06T21:23:52;21.20;55.00
38263;DHT22;24054;50.128;19.730;2024-03-06T21:26:19;21.30;55.10
38263;DHT22;24054;50.128;19.730;2024-03-06T21:28:46;21.30;55.10
38263;DHT22;24054;50.128;19.730;2024-03-06T21:31:15;21.30;55.00
38263;DHT22;24054;50.128;19.730;2024-03-06T21:33:42;21.30;69.10
38263;DHT22;24054;50.128;19.730;2024-03-06T21:36:10;21.30;69.40
38263;DHT22;24054;50.128;19.730;2024-03-06T21:38:37;21.30;55.00
38263;DHT22;24054;50.128;19.730;2024-03-06T21:41:04;21.30;70.00
38263;DHT22;24054;50.128;19.730;2024-03-06T21:43:31;21.30;69.30
38263;DHT22;24054;50.128;19.730;2024-03-06T21:45:59;21.10;68.20
38263;DHT22;24054;50.128;19.730;2024-03-06T21:48:26;21.30;66.50
38263;DHT22;24054;50.128;19.730;2024-03-06T21:50:53;21.30;54.80
38263;DHT22;24054;50.128;19.730;2024-03-06T21:53:22;21.30;54.70
38263;DHT22;24054;50.128;19.730;2024-03-06T21:55:49;21.30;68.90
38263;DHT22;24054;50.128;19.730;2024-03-06T21:58:16;21.30;54.70
38263;DHT22;24054;50.128;19.730;2024-03-06T22:00:43;21.40;69.60
38263;DHT22;24054;50.128;19.730;2024-03-06T22:03:09;21.40;68.90
38263;DHT22;24054;50.128;19.730;2024-03-06T22:08:03;21.30;68.10
38263;DHT22;24054;50.128;19.730;2024-03-06T22:10:33;21.30;54.60
38263;DHT22;24054;50.128;19.730;2024-03-06T22:13:00;21.30;68.90
38263;DHT22;24054;50.128;19.730;2024-03-06T22:15:27;21.30;55.20
38263;DHT22;24054;50.128;19.730;2024-03-06T22:17:54;21.30;67.60
38263;DHT22;24054;50.128;19.730;2024-03-06T22:20:21;21.30;54.50
38263;DHT22;24054;50.128;19.730;2024-03-06T22:22:48;21.30;54.50
38263;DHT22;24054;50.128;19.730;2024-03-06T22:25:15;21.20;69.10
38263;DHT22;24054;50.128;19.730;2024-03-06T22:27:43;21.30;54.40
38263;DHT22;24054;50.128;19.730;2024-03-06T22:30:11;21.10;69.30
38263;DHT22;24054;50.128;19.730;2024-03-06T22:32:37;21.20;54.30
38263;DHT22;24054;50.128;19.730;2024-03-06T22:35:05;21.20;54.40
38263;DHT22;24054;50.128;19.730;2024-03-06T22:37:32;21.20;54.40
38263;DHT22;24054;50.128;19.730;2024-03-06T22:39:58;21.00;68.90
38263;DHT22;24054;50.128;19.730;2024-03-06T22:42:25;21.10;54.30
38263;DHT22;24054;50.128;19.730;2024-03-06T22:44:54;21.10;54.30
38263;DHT22;24054;50.128;19.730;2024-03-06T22:47:20;21.20;54.40
38263;DHT22;24054;50.128;19.730;2024-03-06T22:49:47;21.10;54.30
38263;DHT22;24054;50.128;19.730;2024-03-06T22:52:15;21.10;54.40
38263;DHT22;24054;50.128;19.730;2024-03-06T22:54:42;21.10;54.40
38263;DHT22;24054;50.128;19.730;2024-03-06T22:57:08;21.00;54.30
38263;DHT22;24054;50.128;19.730;2024-03-06T22:59:36;21.00;54.30
38263;DHT22;24054;50.128;19.730;2024-03-06T23:02:04;20.90;69.60
38263;DHT22;24054;50.128;19.730;2024-03-06T23:04:32;21.00;54.30
38263;DHT22;24054;50.128;19.730;2024-03-06T23:06:59;21.00;67.00
38263;DHT22;24054;50.128;19.730;2024-03-06T23:09:26;20.90;54.30
38263;DHT22;24054;50.128;19.730;2024-03-06T23:11:53;20.90;54.30
38263;DHT22;24054;50.128;19.730;2024-03-06T23:14:20;20.90;54.30
38263;DHT22;24054;50.128;19.730;2024-03-06T23:16:47;20.80;54.30
38263;DHT22;24054;50.128;19.730;2024-03-06T23:19:15;20.80;54.30
38263;DHT22;24054;50.128;19.730;2024-03-06T23:21:43;20.70;67.40
38263;DHT22;24054;50.128;19.730;2024-03-06T23:24:10;20.80;54.20
38263;DHT22;24054;50.128;19.730;2024-03-06T23:26:37;21.00;68.80
38263;DHT22;24054;50.128;19.730;2024-03-06T23:29:05;20.70;54.20
38263;DHT22;24054;50.128;19.730;2024-03-06T23:31:32;20.70;68.80
38263;DHT22;24054;50.128;19.730;2024-03-06T23:33:59;20.70;54.20
38263;DHT22;24054;50.128;19.730;2024-03-06T23:36:27;20.70;54.20
38263;DHT22;24054;50.128;19.730;2024-03-06T23:38:54;20.70;54.20
38263;DHT22;24054;50.128;19.730;2024-03-06T23:41:20;20.50;69.20
38263;DHT22;24054;50.128;19.730;2024-03-06T23:43:47;20.60;54.20
38263;DHT22;24054;50.128;19.730;2024-03-06T23:46:14;20.60;54.20
38263;DHT22;24054;50.128;19.730;2024-03-06T23:48:40;20.60;54.10
38263;DHT22;24054;50.128;19.730;2024-03-06T23:51:07;20.60;54.20
38263;DHT22;24054;50.128;19.730;2024-03-06T23:53:35;20.60;54.10
38263;DHT22;24054;50.128;19.730;2024-03-06T23:56:02;20.60;54.20
38263;DHT22;24054;50.128;19.730;2024-03-06T23:58:29;20.50;54.10
